createdAt,value
2018-05-01T00:01:54.728Z,35.98
2018-05-01T00:04:21.051Z,36.24
2018-05-01T00:06:47.331Z,36.04
2018-05-01T00:09:13.571Z,35.91
2018-05-01T00:11:39.877Z,35.76
2018-05-01T00:14:06.155Z,35.78
2018-05-01T00:16:32.426Z,35.81
2018-05-01T00:18:58.902Z,36.16
2018-05-01T00:21:25.118Z,36.16
2018-05-01T00:23:51.402Z,36.08
2018-05-01T00:26:17.699Z,35.83
2018-05-01T00:28:43.910Z,35.92
2018-05-01T00:31:10.234Z,35.67
2018-05-01T00:33:36.510Z,36.10
2018-05-01T00:36:02.750Z,35.94
2018-05-01T00:38:29.177Z,36.40
2018-05-01T00:40:55.434Z,36.22
2018-05-01T00:43:21.650Z,36.54
2018-05-01T00:45:47.930Z,36.41
2018-05-01T00:48:14.231Z,35.80
2018-05-01T00:50:40.635Z,35.54
2018-05-01T00:53:06.914Z,35.66
2018-05-01T00:55:33.163Z,35.33
2018-05-01T00:57:59.519Z,35.16
2018-05-01T01:00:25.778Z,35.16
2018-05-01T01:02:52.133Z,35.16
2018-05-01T01:05:18.435Z,35.52
2018-05-01T01:07:44.678Z,35.52
2018-05-01T01:10:11.155Z,35.43
2018-05-01T01:12:37.474Z,35.25
2018-05-01T01:15:03.734Z,35.20
2018-05-01T01:17:29.975Z,35.28
2018-05-01T01:19:56.290Z,35.33
2018-05-01T01:22:22.773Z,35.24
2018-05-01T01:24:49.039Z,35.20
2018-05-01T01:27:15.330Z,35.30
2018-05-01T01:29:41.682Z,35.40
2018-05-01T01:32:13.929Z,35.63
2018-05-01T01:34:40.339Z,35.44
2018-05-01T01:37:06.328Z,35.43
2018-05-01T01:39:32.381Z,35.47
2018-05-01T01:41:58.528Z,35.63
2018-05-01T01:44:24.546Z,35.79
2018-05-01T01:46:50.575Z,35.97
2018-05-01T01:49:16.770Z,36.14
2018-05-01T01:51:42.811Z,36.18
2018-05-01T01:54:08.821Z,36.24
2018-05-01T01:56:35.011Z,36.28
2018-05-01T01:59:01.010Z,36.67
2018-05-01T02:01:27.017Z,36.64
2018-05-01T02:03:53.171Z,36.68
2018-05-01T02:06:19.187Z,36.68
2018-05-01T02:08:45.178Z,36.64
2018-05-01T02:11:11.340Z,36.56
2018-05-01T02:13:37.426Z,36.65
2018-05-01T02:16:03.417Z,36.83
2018-05-01T02:18:29.523Z,37.18
2018-05-01T02:20:55.567Z,37.07
2018-05-01T02:23:21.559Z,37.11
2018-05-01T02:25:47.692Z,37.10
2018-05-01T02:28:13.710Z,37.19
2018-05-01T02:30:39.734Z,37.24
2018-05-01T02:33:05.758Z,37.32
2018-05-01T02:35:31.753Z,37.28
2018-05-01T02:37:57.764Z,37.54
2018-05-01T02:40:23.806Z,37.50
2018-05-01T02:42:49.912Z,37.40
2018-05-01T02:45:15.907Z,37.34
2018-05-01T02:47:41.919Z,37.37
2018-05-01T02:50:07.936Z,37.44
2018-05-01T02:52:33.926Z,37.67
2018-05-01T02:55:00.002Z,37.53
2018-05-01T02:57:25.991Z,37.82
2018-05-01T02:59:51.986Z,37.97
2018-05-01T03:02:18.069Z,37.83
2018-05-01T03:04:44.091Z,37.92
2018-05-01T03:07:10.226Z,38.13
2018-05-01T03:09:36.226Z,38.26
2018-05-01T03:12:02.222Z,38.38
2018-05-01T03:14:28.347Z,38.45
2018-05-01T03:16:54.371Z,38.71
2018-05-01T03:19:20.391Z,38.80
2018-05-01T03:21:46.461Z,38.81
2018-05-01T03:24:12.477Z,38.89
2018-05-01T03:26:38.594Z,38.86
2018-05-01T03:29:04.669Z,38.90
2018-05-01T03:31:30.718Z,39.11
2018-05-01T03:33:56.721Z,39.14
2018-05-01T03:36:22.824Z,39.20
2018-05-01T03:38:48.866Z,39.33
2018-05-01T03:41:14.856Z,39.55
2018-05-01T03:43:41.067Z,39.90
2018-05-01T03:46:07.081Z,40.05
2018-05-01T03:48:33.070Z,39.83
2018-05-01T03:50:59.241Z,40.21
2018-05-01T03:53:25.226Z,40.30
2018-05-01T03:55:51.253Z,40.28
2018-05-01T03:58:17.390Z,40.34
2018-05-01T04:00:43.386Z,40.06
2018-05-01T04:03:09.434Z,39.88
2018-05-01T04:05:35.593Z,39.65
2018-05-01T04:08:01.618Z,39.83
2018-05-01T04:10:27.687Z,39.74
2018-05-01T04:12:53.782Z,39.95
2018-05-01T04:15:19.800Z,39.69
2018-05-01T04:17:45.863Z,39.73
2018-05-01T04:20:11.945Z,39.82
2018-05-01T04:22:38.002Z,39.74
2018-05-01T04:25:04.027Z,39.74
2018-05-01T04:27:30.082Z,39.96
2018-05-01T04:29:56.071Z,40.00
2018-05-01T04:32:22.115Z,40.10
2018-05-01T04:34:48.143Z,40.45
2018-05-01T04:37:14.226Z,40.53
2018-05-01T04:39:40.237Z,40.37
2018-05-01T04:42:06.266Z,40.76
2018-05-01T04:44:32.282Z,40.38
2018-05-01T04:46:58.270Z,40.37
2018-05-01T04:49:24.262Z,40.56
2018-05-01T04:51:50.278Z,40.60
2018-05-01T04:54:16.332Z,40.79
2018-05-01T04:56:42.335Z,40.91
2018-05-01T04:59:08.434Z,40.84
2018-05-01T05:01:34.437Z,41.06
2018-05-01T05:04:00.447Z,41.18
2018-05-01T05:06:26.505Z,41.42
2018-05-01T05:08:52.514Z,41.41
2018-05-01T05:11:18.514Z,41.13
2018-05-01T05:13:44.515Z,41.34
2018-05-01T05:16:10.522Z,41.32
2018-05-01T05:18:36.515Z,41.30
2018-05-01T05:21:02.542Z,41.31
2018-05-01T05:23:28.540Z,41.73
2018-05-01T05:25:54.563Z,41.33
2018-05-01T05:28:20.602Z,41.54
2018-05-01T05:30:46.589Z,41.46
2018-05-01T05:33:12.659Z,41.38
2018-05-01T05:35:38.641Z,41.72
2018-05-01T05:38:04.623Z,41.48
2018-05-01T05:40:30.642Z,41.36
2018-05-01T05:42:56.755Z,41.76
2018-05-01T05:45:22.802Z,41.97
2018-05-01T05:47:48.789Z,41.37
2018-05-01T05:50:14.787Z,40.87
2018-05-01T05:52:40.828Z,41.26
2018-05-01T05:55:06.836Z,41.31
2018-05-01T05:57:32.854Z,41.30
2018-05-01T05:59:58.935Z,41.45
2018-05-01T06:02:24.950Z,41.65
2018-05-01T06:04:50.958Z,41.72
2018-05-01T06:07:17.034Z,41.34
2018-05-01T06:09:43.062Z,41.28
2018-05-01T06:12:09.102Z,41.70
2018-05-01T06:14:35.219Z,41.60
2018-05-01T06:17:01.247Z,41.83
2018-05-01T06:19:27.249Z,41.69
2018-05-01T06:21:53.427Z,41.57
2018-05-01T06:24:19.430Z,41.68
2018-05-01T06:26:45.527Z,41.94
2018-05-01T06:29:11.642Z,41.33
2018-05-01T06:31:37.646Z,41.61
2018-05-01T06:34:03.635Z,41.96
2018-05-01T06:36:29.911Z,42.15
2018-05-01T06:38:55.907Z,41.96
2018-05-01T06:41:22.003Z,42.57
2018-05-01T06:43:48.169Z,42.46
2018-05-01T06:46:14.159Z,42.31
2018-05-01T06:48:40.210Z,42.63
2018-05-01T06:51:06.315Z,42.63
2018-05-01T06:53:32.373Z,43.31
2018-05-01T06:55:58.423Z,43.64
2018-05-01T06:58:24.502Z,43.69
2018-05-01T07:00:50.571Z,43.28
2018-05-01T07:03:16.669Z,43.12
2018-05-01T07:05:42.663Z,42.47
2018-05-01T07:08:08.683Z,42.36
2018-05-01T07:10:34.761Z,42.14
2018-05-01T07:13:00.781Z,42.32
2018-05-01T07:15:26.767Z,42.43
2018-05-01T07:17:52.766Z,42.30
2018-05-01T07:20:18.785Z,42.14
2018-05-01T07:22:44.774Z,41.77
2018-05-01T07:25:10.902Z,42.22
2018-05-01T07:27:36.925Z,42.34
2018-05-01T07:30:02.917Z,42.89
2018-05-01T07:32:28.958Z,42.60
2018-05-01T07:34:54.963Z,42.91
2018-05-01T07:37:20.986Z,42.89
2018-05-01T07:39:46.982Z,42.65
2018-05-01T07:42:13.037Z,43.08
2018-05-01T07:44:39.046Z,43.13
2018-05-01T07:47:05.166Z,43.36
2018-05-01T07:49:31.194Z,43.44
2018-05-01T07:51:57.223Z,42.62
2018-05-01T07:54:23.476Z,42.28
2018-05-01T07:56:49.497Z,42.49
2018-05-01T07:59:15.497Z,42.85
2018-05-01T08:01:41.636Z,42.60
2018-05-01T08:04:07.727Z,42.87
2018-05-01T08:06:33.762Z,42.97
2018-05-01T08:09:00.022Z,42.65
2018-05-01T08:11:26.006Z,42.95
2018-05-01T08:13:52.043Z,42.81
2018-05-01T08:16:18.178Z,43.13
2018-05-01T08:18:44.248Z,43.32
2018-05-01T08:21:10.214Z,42.93
2018-05-01T08:23:36.307Z,42.95
2018-05-01T08:26:02.364Z,42.68
2018-05-01T08:28:28.465Z,42.92
2018-05-01T08:30:54.542Z,42.53
2018-05-01T08:33:20.679Z,42.69
2018-05-01T08:35:46.735Z,43.18
2018-05-01T08:38:12.809Z,43.11
2018-05-01T08:40:38.795Z,43.16
2018-05-01T08:43:04.782Z,42.83
2018-05-01T08:45:30.893Z,43.09
2018-05-01T08:47:56.899Z,43.12
2018-05-01T08:50:22.923Z,43.06
2018-05-01T08:52:48.938Z,42.81
2018-05-01T08:55:14.928Z,42.58
2018-05-01T08:57:41.131Z,41.78
2018-05-01T09:00:07.142Z,41.45
2018-05-01T09:02:33.199Z,41.06
2018-05-01T09:04:59.179Z,41.58
2018-05-01T09:07:25.321Z,41.09
2018-05-01T09:09:51.323Z,40.50
2018-05-01T09:12:17.470Z,41.09
2018-05-01T09:14:43.527Z,40.60
2018-05-01T09:17:09.615Z,40.65
2018-05-01T09:19:35.761Z,40.19
2018-05-01T09:22:01.894Z,39.34
2018-05-01T09:24:28.129Z,39.43
2018-05-01T09:26:54.474Z,39.04
2018-05-01T09:29:20.478Z,37.97
2018-05-01T09:31:46.478Z,37.53
2018-05-01T09:34:12.634Z,37.64
2018-05-01T09:36:38.757Z,37.31
2018-05-01T09:39:04.777Z,36.37
2018-05-01T09:41:30.878Z,35.83
2018-05-01T09:43:57.019Z,35.77
2018-05-01T09:46:23.070Z,35.12
2018-05-01T09:48:49.142Z,35.71
2018-05-01T09:51:15.189Z,35.89
2018-05-01T09:53:41.451Z,36.40
2018-05-01T09:56:07.775Z,35.80
2018-05-01T09:58:34.114Z,35.36
2018-05-01T10:01:00.474Z,35.17
2018-05-01T10:03:26.784Z,34.17
2018-05-01T10:05:53.031Z,34.25
2018-05-01T10:08:19.316Z,32.21
2018-05-01T10:10:45.667Z,30.46
2018-05-01T10:13:11.975Z,28.98
2018-05-01T10:15:38.382Z,28.05
2018-05-01T10:18:04.690Z,27.29
2018-05-01T10:20:31.038Z,26.46
2018-05-01T10:22:57.383Z,26.79
2018-05-01T10:25:23.790Z,28.85
2018-05-01T10:27:50.191Z,29.76
2018-05-01T10:30:16.443Z,29.89
2018-05-01T10:32:42.899Z,29.62
2018-05-01T10:35:09.267Z,28.50
2018-05-01T10:37:35.556Z,27.35
2018-05-01T10:40:01.911Z,27.06
2018-05-01T10:42:28.153Z,27.38
2018-05-01T10:44:54.607Z,28.06
2018-05-01T10:47:20.863Z,29.26
2018-05-01T10:49:47.200Z,29.55
2018-05-01T10:52:15.519Z,27.78
2018-05-01T10:54:41.963Z,26.83
2018-05-01T10:57:08.223Z,25.39
2018-05-01T10:59:34.502Z,25.43
2018-05-01T11:02:00.878Z,24.57
2018-05-01T11:04:27.203Z,23.46
2018-05-01T11:06:53.557Z,24.06
2018-05-01T11:09:19.851Z,24.52
2018-05-01T11:11:46.104Z,24.29
2018-05-01T11:14:12.662Z,22.66
2018-05-01T11:16:38.883Z,23.48
2018-05-01T11:19:05.198Z,25.49
2018-05-01T11:21:31.532Z,26.68
2018-05-01T11:23:57.779Z,26.63
2018-05-01T11:26:24.064Z,27.44
2018-05-01T11:28:50.639Z,27.43
2018-05-01T11:31:16.890Z,27.85
2018-05-01T11:33:43.287Z,28.91
2018-05-01T11:36:09.506Z,29.14
2018-05-01T11:38:35.936Z,28.73
2018-05-01T11:41:02.286Z,27.57
2018-05-01T11:43:28.590Z,27.77
2018-05-01T11:45:55.142Z,27.82
2018-05-01T11:48:21.457Z,27.69
2018-05-01T11:50:47.776Z,26.22
2018-05-01T11:53:14.102Z,26.04
2018-05-01T11:55:40.430Z,26.00
2018-05-01T11:58:06.899Z,25.42
2018-05-01T12:00:33.127Z,25.20
2018-05-01T12:02:59.459Z,25.12
2018-05-01T12:05:25.879Z,24.25
2018-05-01T12:07:52.123Z,23.79
2018-05-01T12:10:18.558Z,23.77
2018-05-01T12:12:44.982Z,24.03
2018-05-01T12:15:11.289Z,21.99
2018-05-01T12:17:37.702Z,21.55
2018-05-01T12:20:03.954Z,22.35
2018-05-01T12:22:30.214Z,21.21
2018-05-01T12:24:56.429Z,20.78
2018-05-01T12:27:22.745Z,19.64
2018-05-01T12:29:49.081Z,19.31
2018-05-01T12:32:15.361Z,18.33
2018-05-01T12:34:41.695Z,18.03
2018-05-01T12:37:08.000Z,18.19
2018-05-01T12:39:34.227Z,18.45
2018-05-01T12:42:00.698Z,18.14
2018-05-01T12:44:26.951Z,17.53
2018-05-01T12:46:53.252Z,17.20
2018-05-01T12:49:19.622Z,18.20
2018-05-01T12:51:45.902Z,17.40
2018-05-01T12:54:12.240Z,16.05
2018-05-01T12:56:38.577Z,16.12
2018-05-01T12:59:04.883Z,15.68
2018-05-01T13:01:31.282Z,16.29
2018-05-01T13:03:57.501Z,15.88
2018-05-01T13:06:23.844Z,17.58
2018-05-01T13:08:50.325Z,17.71
2018-05-01T13:11:16.658Z,18.98
2018-05-01T13:13:44.010Z,19.42
2018-05-01T13:16:10.238Z,19.83
2018-05-01T13:18:36.785Z,19.36
2018-05-01T13:21:03.219Z,19.36
2018-05-01T13:23:29.596Z,18.04
2018-05-01T13:25:55.841Z,17.78
2018-05-01T13:28:22.085Z,18.75
2018-05-01T13:30:48.453Z,18.50
2018-05-01T13:33:14.849Z,19.14
2018-05-01T13:35:41.092Z,19.10
2018-05-01T13:38:07.411Z,18.86
2018-05-01T13:40:33.755Z,18.35
2018-05-01T13:43:00.000Z,17.99
2018-05-01T13:45:26.534Z,18.36
2018-05-01T13:47:52.778Z,19.25
2018-05-01T13:50:19.052Z,18.29
2018-05-01T13:52:45.350Z,17.67
2018-05-01T13:55:11.608Z,17.23
2018-05-01T13:57:38.127Z,17.40
2018-05-01T14:00:04.458Z,16.60
2018-05-01T14:02:30.828Z,16.71
2018-05-01T14:04:57.101Z,17.06
2018-05-01T14:07:23.342Z,16.94
2018-05-01T14:09:49.725Z,17.08
2018-05-01T14:12:16.034Z,17.40
2018-05-01T14:14:42.374Z,17.26
2018-05-01T14:17:08.626Z,16.65
2018-05-01T14:19:35.191Z,17.42
2018-05-01T14:22:01.882Z,17.88
2018-05-01T14:24:28.173Z,17.66
2018-05-01T14:26:54.480Z,16.72
2018-05-01T14:29:20.707Z,17.07
2018-05-01T14:31:47.029Z,16.95
2018-05-01T14:34:13.515Z,17.10
2018-05-01T14:36:39.978Z,18.06
2018-05-01T14:39:06.238Z,18.49
2018-05-01T14:41:32.511Z,17.44
2018-05-01T14:43:58.877Z,18.37
2018-05-01T14:46:25.426Z,18.16
2018-05-01T14:48:51.773Z,17.93
2018-05-01T14:51:18.051Z,17.75
2018-05-01T14:53:44.638Z,17.81
2018-05-01T14:56:11.154Z,17.24
2018-05-01T14:58:37.471Z,17.74
2018-05-01T15:01:03.830Z,18.27
2018-05-01T15:03:30.148Z,18.49
2018-05-01T15:05:56.477Z,19.18
2018-05-01T15:08:22.877Z,18.80
2018-05-01T15:10:49.118Z,18.61
2018-05-01T15:13:15.490Z,18.85
2018-05-01T15:15:41.903Z,19.47
2018-05-01T15:18:08.310Z,19.87
2018-05-01T15:20:34.655Z,20.52
2018-05-01T15:23:01.023Z,20.60
2018-05-01T15:25:27.413Z,20.25
2018-05-01T15:27:53.706Z,21.62
2018-05-01T15:30:20.103Z,21.27
2018-05-01T15:32:46.307Z,22.31
2018-05-01T15:35:12.522Z,23.50
2018-05-01T15:37:38.966Z,23.09
2018-05-01T15:40:05.217Z,22.89
2018-05-01T15:42:31.543Z,24.06
2018-05-01T15:44:57.879Z,24.87
2018-05-01T15:47:24.186Z,25.69
2018-05-01T15:49:50.585Z,26.31
2018-05-01T15:52:16.946Z,27.30
2018-05-01T15:54:43.267Z,27.29
2018-05-01T15:57:09.718Z,27.31
2018-05-01T15:59:35.994Z,27.54
2018-05-01T16:02:02.308Z,28.62
2018-05-01T16:04:28.642Z,29.67
2018-05-01T16:06:54.902Z,29.85
2018-05-01T16:09:21.415Z,29.55
2018-05-01T16:11:47.627Z,29.72
2018-05-01T16:14:14.023Z,29.85
2018-05-01T16:16:40.385Z,30.14
2018-05-01T16:19:06.640Z,29.86
2018-05-01T16:21:32.998Z,30.28
2018-05-01T16:23:59.365Z,30.93
2018-05-01T16:26:25.627Z,30.05
2018-05-01T16:28:51.913Z,30.48
2018-05-01T16:31:18.216Z,29.11
2018-05-01T16:33:44.596Z,29.59
2018-05-01T16:36:10.918Z,29.48
2018-05-01T16:38:37.166Z,29.21
2018-05-01T16:41:03.650Z,29.06
2018-05-01T16:43:29.898Z,29.16
2018-05-01T16:45:56.313Z,30.05
2018-05-01T16:48:22.595Z,30.02
2018-05-01T16:50:48.846Z,30.55
2018-05-01T16:53:15.390Z,30.92
2018-05-01T16:55:41.696Z,30.10
2018-05-01T16:58:07.994Z,29.94
2018-05-01T17:00:34.351Z,30.16
2018-05-01T17:03:00.583Z,30.47
2018-05-01T17:05:26.903Z,30.51
2018-05-01T17:07:53.177Z,30.53
2018-05-01T17:10:19.461Z,29.91
2018-05-01T17:12:45.783Z,29.90
2018-05-01T17:15:12.110Z,29.16
2018-05-01T17:17:38.350Z,29.26
2018-05-01T17:20:04.688Z,29.46
2018-05-01T17:22:31.510Z,30.51
2018-05-01T17:24:57.963Z,29.47
2018-05-01T17:27:24.235Z,29.13
2018-05-01T17:29:50.525Z,29.33
2018-05-01T17:32:16.859Z,29.72
2018-05-01T17:34:43.075Z,29.65
2018-05-01T17:37:09.577Z,29.46
2018-05-01T17:39:36.294Z,29.12
2018-05-01T17:42:03.435Z,29.47
2018-05-01T17:44:29.922Z,30.14
2018-05-01T17:46:56.180Z,29.73
2018-05-01T17:49:22.426Z,29.57
2018-05-01T17:51:49.005Z,29.47
2018-05-01T17:54:15.453Z,29.73
2018-05-01T17:56:41.929Z,29.67
2018-05-01T17:59:08.290Z,29.76
2018-05-01T18:01:34.518Z,29.72
2018-05-01T18:04:01.088Z,30.34
2018-05-01T18:06:27.611Z,29.84
2018-05-01T18:08:54.379Z,29.60
2018-05-01T18:11:20.632Z,29.86
2018-05-01T18:13:46.876Z,29.81
2018-05-01T18:16:13.302Z,29.97
2018-05-01T18:18:39.750Z,30.34
2018-05-01T18:21:06.315Z,30.43
2018-05-01T18:23:32.594Z,30.52
2018-05-01T18:25:58.904Z,30.78
2018-05-01T18:28:25.338Z,30.78
2018-05-01T18:30:51.762Z,30.91
2018-05-01T18:33:18.333Z,30.90
2018-05-01T18:35:44.615Z,31.03
2018-05-01T18:38:10.900Z,31.06
2018-05-01T18:40:37.273Z,31.20
2018-05-01T18:43:03.758Z,31.28
2018-05-01T18:45:30.483Z,31.40
2018-05-01T18:47:57.034Z,31.66
2018-05-01T18:50:23.372Z,31.73
2018-05-01T18:52:49.683Z,31.82
2018-05-01T18:55:17.054Z,32.10
2018-05-01T18:57:43.632Z,33.44
2018-05-01T19:00:10.028Z,33.86
2018-05-01T19:02:36.667Z,33.88
2018-05-01T19:05:04.308Z,33.92
2018-05-01T19:07:30.863Z,34.19
2018-05-01T19:09:57.186Z,34.70
2018-05-01T19:12:23.761Z,35.09
2018-05-01T19:14:50.051Z,35.40
2018-05-01T19:17:16.345Z,36.21
2018-05-01T19:19:42.937Z,36.24
2018-05-01T19:22:09.250Z,36.41
2018-05-01T19:24:35.694Z,36.93
2018-05-01T19:27:01.962Z,38.46
2018-05-01T19:29:28.238Z,38.90
2018-05-01T19:31:54.779Z,39.22
2018-05-01T19:34:21.057Z,39.64
2018-05-01T19:36:47.422Z,40.02
2018-05-01T19:39:13.761Z,40.22
2018-05-01T19:41:40.016Z,40.19
2018-05-01T19:44:06.586Z,40.51
2018-05-01T19:46:32.824Z,40.65
2018-05-01T19:48:59.130Z,40.28
2018-05-01T19:51:25.547Z,40.38
2018-05-01T19:53:51.770Z,40.91
2018-05-01T19:56:18.375Z,41.29
2018-05-01T19:58:44.642Z,41.43
2018-05-01T20:01:10.878Z,41.86
2018-05-01T20:03:37.546Z,41.92
2018-05-01T20:06:03.866Z,41.96
2018-05-01T20:08:30.500Z,42.30
2018-05-01T20:10:56.734Z,42.42
2018-05-01T20:13:22.937Z,42.77
2018-05-01T20:15:49.294Z,42.52
2018-05-01T20:18:15.555Z,42.76
2018-05-01T20:20:42.034Z,42.79
2018-05-01T20:23:08.314Z,43.09
2018-05-01T20:25:34.546Z,43.20
2018-05-01T20:28:01.070Z,42.99
2018-05-01T20:30:27.346Z,43.17
2018-05-01T20:32:53.831Z,43.53
2018-05-01T20:35:20.327Z,43.70
2018-05-01T20:37:46.558Z,43.99
2018-05-01T20:40:13.174Z,44.13
2018-05-01T20:42:39.405Z,44.21
2018-05-01T20:45:05.906Z,44.30
2018-05-01T20:47:32.199Z,44.13
2018-05-01T20:49:58.430Z,45.18
2018-05-01T20:52:25.002Z,44.91
2018-05-01T20:54:51.217Z,44.77
2018-05-01T20:57:17.652Z,44.70
2018-05-01T20:59:43.947Z,44.75
2018-05-01T21:02:10.174Z,44.84
2018-05-01T21:04:36.802Z,45.22
2018-05-01T21:07:03.042Z,45.23
2018-05-01T21:09:29.434Z,45.43
2018-05-01T21:11:55.711Z,45.75
2018-05-01T21:14:21.926Z,45.97
2018-05-01T21:16:48.620Z,45.53
2018-05-01T21:19:14.893Z,45.41
2018-05-01T21:21:41.207Z,45.41
2018-05-01T21:24:07.558Z,45.54
2018-05-01T21:26:33.809Z,45.74
2018-05-01T21:29:00.430Z,46.23
2018-05-01T21:31:26.683Z,46.37
2018-05-01T21:33:52.942Z,46.04
2018-05-01T21:36:19.434Z,46.15
2018-05-01T21:38:45.659Z,46.64
2018-05-01T21:41:12.221Z,46.71
2018-05-01T21:43:38.536Z,47.43
2018-05-01T21:46:04.810Z,47.43
2018-05-01T21:48:31.287Z,46.97
2018-05-01T21:50:57.511Z,46.80
2018-05-01T21:53:24.031Z,46.97
2018-05-01T21:55:50.270Z,47.18
2018-05-01T21:58:16.571Z,47.29
2018-05-01T22:00:43.152Z,47.35
2018-05-01T22:03:09.390Z,47.28
2018-05-01T22:05:35.889Z,47.56
2018-05-01T22:08:02.167Z,47.43
2018-05-01T22:10:28.523Z,47.39
2018-05-01T22:12:55.046Z,47.87
2018-05-01T22:15:21.274Z,47.55
2018-05-01T22:17:47.766Z,47.33
2018-05-01T22:20:14.018Z,47.53
2018-05-01T22:22:40.280Z,48.40
2018-05-01T22:25:06.910Z,48.19
2018-05-01T22:27:33.220Z,48.08
2018-05-01T22:29:59.632Z,48.56
2018-05-01T22:32:25.986Z,48.89
2018-05-01T22:34:52.311Z,49.03
2018-05-01T22:37:18.842Z,48.82
2018-05-01T22:39:45.672Z,48.77
2018-05-01T22:42:12.220Z,49.09
2018-05-01T22:44:38.521Z,49.20
2018-05-01T22:47:04.826Z,48.99
2018-05-01T22:49:31.273Z,49.25
2018-05-01T22:51:57.529Z,48.98
2018-05-01T22:54:24.048Z,49.14
2018-05-01T22:56:50.331Z,49.37
2018-05-01T22:59:16.585Z,49.61
2018-05-01T23:01:43.140Z,49.77
2018-05-01T23:04:09.423Z,49.25
2018-05-01T23:06:35.910Z,49.24
2018-05-01T23:09:02.298Z,49.54
2018-05-01T23:11:28.527Z,49.24
2018-05-01T23:13:55.157Z,49.43
2018-05-01T23:16:21.386Z,49.81
2018-05-01T23:18:47.806Z,50.36
2018-05-01T23:21:14.094Z,50.66
2018-05-01T23:23:40.385Z,50.48
2018-05-01T23:26:07.030Z,50.53
2018-05-01T23:28:33.279Z,51.05
2018-05-01T23:30:59.637Z,51.07
2018-05-01T23:33:25.934Z,51.05
2018-05-01T23:35:52.299Z,50.94
2018-05-01T23:38:18.917Z,51.10
2018-05-01T23:40:45.204Z,51.26
2018-05-01T23:43:11.609Z,51.24
2018-05-01T23:45:37.899Z,51.47
2018-05-01T23:48:04.209Z,51.87
2018-05-01T23:50:30.814Z,51.39
2018-05-01T23:52:57.074Z,51.40
2018-05-01T23:55:23.429Z,51.39
2018-05-01T23:57:49.833Z,51.36
